sensor_id;sensor_type;location;lat;lon;timestamp;P1;durP1;ratioP1;P2;durP2;ratioP2
68993;SDS011;56054;50.968;5.816;2022-09-09T00:02:24;1.50;;;0.40;;
68993;SDS011;56054;50.968;5.816;2022-09-09T00:05:44;4.65;;;0.90;;
68993;SDS011;56054;50.968;5.816;2022-09-09T00:09:25;4.22;;;0.80;;
68993;SDS011;56054;50.968;5.816;2022-09-09T00:12:38;3.85;;;0.55;;
68993;SDS011;56054;50.968;5.816;2022-09-09T00:15:57;1.15;;;0.43;;
68993;SDS011;56054;50.968;5.816;2022-09-09T00:22:25;2.75;;;0.50;;
68993;SDS011;56054;50.968;5.816;2022-09-09T00:25:39;4.93;;;0.63;;
68993;SDS011;56054;50.968;5.816;2022-09-09T00:32:18;3.85;;;0.38;;
68993;SDS011;56054;50.968;5.816;2022-09-09T00:35:36;2.95;;;0.50;;
68993;SDS011;56054;50.968;5.816;2022-09-09T00:38:47;5.93;;;0.63;;
68993;SDS011;56054;50.968;5.816;2022-09-09T00:52:36;2.92;;;0.60;;
68993;SDS011;56054;50.968;5.816;2022-09-09T00:56:09;3.83;;;0.50;;
68993;SDS011;56054;50.968;5.816;2022-09-09T00:59:25;2.45;;;0.45;;
68993;SDS011;56054;50.968;5.816;2022-09-09T01:06:29;5.30;;;0.80;;
68993;SDS011;56054;50.968;5.816;2022-09-09T01:09:41;0.75;;;0.35;;
68993;SDS011;56054;50.968;5.816;2022-09-09T01:12:50;1.95;;;0.73;;
68993;SDS011;56054;50.968;5.816;2022-09-09T01:16:00;7.22;;;1.00;;
68993;SDS011;56054;50.968;5.816;2022-09-09T01:19:13;3.40;;;0.80;;
68993;SDS011;56054;50.968;5.816;2022-09-09T01:29:33;2.58;;;0.60;;
68993;SDS011;56054;50.968;5.816;2022-09-09T01:32:43;3.78;;;0.60;;
68993;SDS011;56054;50.968;5.816;2022-09-09T01:35:52;3.47;;;1.00;;
68993;SDS011;56054;50.968;5.816;2022-09-09T01:39:10;4.35;;;0.65;;
68993;SDS011;56054;50.968;5.816;2022-09-09T01:42:21;5.65;;;0.98;;
68993;SDS011;56054;50.968;5.816;2022-09-09T01:45:28;6.00;;;0.75;;
68993;SDS011;56054;50.968;5.816;2022-09-09T01:48:36;5.85;;;0.88;;
68993;SDS011;56054;50.968;5.816;2022-09-09T01:51:44;5.28;;;0.98;;
68993;SDS011;56054;50.968;5.816;2022-09-09T01:55:04;1.20;;;0.50;;
68993;SDS011;56054;50.968;5.816;2022-09-09T01:58:19;5.53;;;1.00;;
68993;SDS011;56054;50.968;5.816;2022-09-09T02:12:05;4.80;;;0.90;;
68993;SDS011;56054;50.968;5.816;2022-09-09T02:15:35;5.18;;;0.90;;
68993;SDS011;56054;50.968;5.816;2022-09-09T02:22:22;6.93;;;1.10;;
68993;SDS011;56054;50.968;5.816;2022-09-09T02:25:33;2.65;;;0.60;;
68993;SDS011;56054;50.968;5.816;2022-09-09T02:28:51;7.93;;;0.93;;
68993;SDS011;56054;50.968;5.816;2022-09-09T02:32:03;2.72;;;0.90;;
68993;SDS011;56054;50.968;5.816;2022-09-09T02:35:14;4.13;;;0.90;;
68993;SDS011;56054;50.968;5.816;2022-09-09T02:38:25;5.75;;;0.88;;
68993;SDS011;56054;50.968;5.816;2022-09-09T02:41:40;8.00;;;1.25;;
68993;SDS011;56054;50.968;5.816;2022-09-09T02:44:47;4.60;;;0.80;;
68993;SDS011;56054;50.968;5.816;2022-09-09T02:48:09;3.78;;;0.77;;
68993;SDS011;56054;50.968;5.816;2022-09-09T02:54:38;3.80;;;0.70;;
68993;SDS011;56054;50.968;5.816;2022-09-09T02:57:47;3.40;;;1.15;;
68993;SDS011;56054;50.968;5.816;2022-09-09T03:00:55;8.20;;;0.80;;
68993;SDS011;56054;50.968;5.816;2022-09-09T03:04:04;7.50;;;1.08;;
68993;SDS011;56054;50.968;5.816;2022-09-09T03:07:13;4.32;;;0.70;;
68993;SDS011;56054;50.968;5.816;2022-09-09T03:10:21;6.75;;;0.77;;
68993;SDS011;56054;50.968;5.816;2022-09-09T03:13:28;3.63;;;0.80;;
68993;SDS011;56054;50.968;5.816;2022-09-09T03:16:35;4.78;;;0.90;;
68993;SDS011;56054;50.968;5.816;2022-09-09T03:19:42;8.63;;;1.20;;
68993;SDS011;56054;50.968;5.816;2022-09-09T03:22:50;3.35;;;1.00;;
68993;SDS011;56054;50.968;5.816;2022-09-09T03:25:57;7.18;;;0.93;;
68993;SDS011;56054;50.968;5.816;2022-09-09T03:29:13;5.20;;;1.10;;
68993;SDS011;56054;50.968;5.816;2022-09-09T03:32:21;8.60;;;1.02;;
68993;SDS011;56054;50.968;5.816;2022-09-09T03:35:30;5.03;;;0.93;;
68993;SDS011;56054;50.968;5.816;2022-09-09T03:38:38;5.60;;;1.23;;
68993;SDS011;56054;50.968;5.816;2022-09-09T03:41:46;5.97;;;0.90;;
68993;SDS011;56054;50.968;5.816;2022-09-09T03:44:54;6.82;;;1.00;;
68993;SDS011;56054;50.968;5.816;2022-09-09T03:48:02;6.13;;;1.00;;
68993;SDS011;56054;50.968;5.816;2022-09-09T03:51:10;6.90;;;0.80;;
68993;SDS011;56054;50.968;5.816;2022-09-09T03:54:17;5.63;;;1.23;;
68993;SDS011;56054;50.968;5.816;2022-09-09T03:57:24;6.00;;;1.00;;
68993;SDS011;56054;50.968;5.816;2022-09-09T04:00:38;5.15;;;1.33;;
68993;SDS011;56054;50.968;5.816;2022-09-09T04:03:45;9.20;;;1.52;;
68993;SDS011;56054;50.968;5.816;2022-09-09T04:06:53;3.97;;;0.95;;
68993;SDS011;56054;50.968;5.816;2022-09-09T04:09:59;4.20;;;1.10;;
68993;SDS011;56054;50.968;5.816;2022-09-09T04:13:07;6.18;;;0.70;;
68993;SDS011;56054;50.968;5.816;2022-09-09T04:16:14;3.72;;;1.05;;
68993;SDS011;56054;50.968;5.816;2022-09-09T04:19:21;9.50;;;0.98;;
68993;SDS011;56054;50.968;5.816;2022-09-09T04:22:27;3.50;;;0.93;;
68993;SDS011;56054;50.968;5.816;2022-09-09T04:25:35;4.97;;;0.90;;
68993;SDS011;56054;50.968;5.816;2022-09-09T04:28:42;5.80;;;1.10;;
68993;SDS011;56054;50.968;5.816;2022-09-09T04:31:52;11.73;;;1.80;;
68993;SDS011;56054;50.968;5.816;2022-09-09T04:35:00;11.80;;;1.10;;
68993;SDS011;56054;50.968;5.816;2022-09-09T04:38:07;6.05;;;1.23;;
68993;SDS011;56054;50.968;5.816;2022-09-09T04:41:15;5.20;;;1.20;;
68993;SDS011;56054;50.968;5.816;2022-09-09T04:44:25;6.20;;;1.58;;
68993;SDS011;56054;50.968;5.816;2022-09-09T04:47:33;5.85;;;0.88;;
68993;SDS011;56054;50.968;5.816;2022-09-09T04:50:40;6.35;;;1.40;;
68993;SDS011;56054;50.968;5.816;2022-09-09T04:53:47;9.10;;;1.30;;
68993;SDS011;56054;50.968;5.816;2022-09-09T04:56:54;5.85;;;1.00;;
68993;SDS011;56054;50.968;5.816;2022-09-09T05:00:02;6.15;;;1.10;;
68993;SDS011;56054;50.968;5.816;2022-09-09T05:03:12;8.95;;;1.30;;
68993;SDS011;56054;50.968;5.816;2022-09-09T05:06:20;3.40;;;0.82;;
68993;SDS011;56054;50.968;5.816;2022-09-09T05:09:32;5.15;;;1.10;;
68993;SDS011;56054;50.968;5.816;2022-09-09T05:12:38;6.50;;;1.27;;
68993;SDS011;56054;50.968;5.816;2022-09-09T05:15:52;10.48;;;0.95;;
68993;SDS011;56054;50.968;5.816;2022-09-09T05:19:00;11.48;;;1.50;;
68993;SDS011;56054;50.968;5.816;2022-09-09T05:22:36;7.60;;;1.20;;
68993;SDS011;56054;50.968;5.816;2022-09-09T05:25:52;7.43;;;1.25;;
68993;SDS011;56054;50.968;5.816;2022-09-09T05:29:03;4.53;;;1.10;;
68993;SDS011;56054;50.968;5.816;2022-09-09T05:32:10;5.07;;;1.20;;
68993;SDS011;56054;50.968;5.816;2022-09-09T05:35:20;6.45;;;1.30;;
68993;SDS011;56054;50.968;5.816;2022-09-09T05:38:27;8.43;;;1.38;;
68993;SDS011;56054;50.968;5.816;2022-09-09T05:41:34;7.88;;;1.20;;
68993;SDS011;56054;50.968;5.816;2022-09-09T05:44:42;6.68;;;1.00;;
68993;SDS011;56054;50.968;5.816;2022-09-09T05:47:51;3.78;;;0.90;;
68993;SDS011;56054;50.968;5.816;2022-09-09T05:50:59;11.57;;;1.10;;
68993;SDS011;56054;50.968;5.816;2022-09-09T05:54:07;5.25;;;1.05;;
68993;SDS011;56054;50.968;5.816;2022-09-09T05:57:16;6.97;;;1.10;;
68993;SDS011;56054;50.968;5.816;2022-09-09T06:04:07;8.70;;;1.15;;
68993;SDS011;56054;50.968;5.816;2022-09-09T06:07:17;5.20;;;0.98;;
68993;SDS011;56054;50.968;5.816;2022-09-09T06:10:24;3.88;;;0.85;;
68993;SDS011;56054;50.968;5.816;2022-09-09T06:13:33;4.03;;;0.80;;
68993;SDS011;56054;50.968;5.816;2022-09-09T06:24:24;11.52;;;1.20;;
68993;SDS011;56054;50.968;5.816;2022-09-09T06:27:52;8.05;;;0.95;;
68993;SDS011;56054;50.968;5.816;2022-09-09T06:31:08;7.25;;;1.20;;
68993;SDS011;56054;50.968;5.816;2022-09-09T06:34:29;3.55;;;0.75;;
68993;SDS011;56054;50.968;5.816;2022-09-09T06:38:07;4.43;;;1.02;;
68993;SDS011;56054;50.968;5.816;2022-09-09T06:41:32;15.13;;;1.33;;
68993;SDS011;56054;50.968;5.816;2022-09-09T06:44:53;11.50;;;1.92;;
68993;SDS011;56054;50.968;5.816;2022-09-09T06:48:22;9.73;;;1.42;;
68993;SDS011;56054;50.968;5.816;2022-09-09T06:52:05;7.43;;;1.20;;
68993;SDS011;56054;50.968;5.816;2022-09-09T07:11:21;4.93;;;1.05;;
68993;SDS011;56054;50.968;5.816;2022-09-09T07:37:35;10.50;;;1.40;;
68993;SDS011;56054;50.968;5.816;2022-09-09T07:44:48;8.77;;;1.02;;
68993;SDS011;56054;50.968;5.816;2022-09-09T07:48:01;9.02;;;1.25;;
68993;SDS011;56054;50.968;5.816;2022-09-09T07:51:10;3.97;;;1.10;;
68993;SDS011;56054;50.968;5.816;2022-09-09T07:54:19;9.70;;;1.75;;
68993;SDS011;56054;50.968;5.816;2022-09-09T07:57:28;9.70;;;2.20;;
68993;SDS011;56054;50.968;5.816;2022-09-09T08:00:36;6.53;;;1.17;;
68993;SDS011;56054;50.968;5.816;2022-09-09T08:03:43;9.98;;;1.30;;
68993;SDS011;56054;50.968;5.816;2022-09-09T08:06:53;7.43;;;1.25;;
68993;SDS011;56054;50.968;5.816;2022-09-09T08:10:06;5.38;;;1.30;;
68993;SDS011;56054;50.968;5.816;2022-09-09T08:13:15;7.53;;;1.30;;
68993;SDS011;56054;50.968;5.816;2022-09-09T08:16:23;10.75;;;1.30;;
68993;SDS011;56054;50.968;5.816;2022-09-09T08:19:33;8.20;;;1.48;;
68993;SDS011;56054;50.968;5.816;2022-09-09T08:22:45;9.40;;;1.50;;
68993;SDS011;56054;50.968;5.816;2022-09-09T08:25:52;6.47;;;1.10;;
68993;SDS011;56054;50.968;5.816;2022-09-09T08:29:00;8.48;;;1.30;;
68993;SDS011;56054;50.968;5.816;2022-09-09T08:32:08;9.63;;;1.33;;
68993;SDS011;56054;50.968;5.816;2022-09-09T08:35:16;9.07;;;1.23;;
68993;SDS011;56054;50.968;5.816;2022-09-09T08:38:25;19.60;;;1.48;;
68993;SDS011;56054;50.968;5.816;2022-09-09T08:45:31;8.48;;;1.05;;
68993;SDS011;56054;50.968;5.816;2022-09-09T08:48:53;8.90;;;1.25;;
68993;SDS011;56054;50.968;5.816;2022-09-09T08:52:08;4.38;;;1.20;;
68993;SDS011;56054;50.968;5.816;2022-09-09T08:58:51;3.30;;;0.88;;
68993;SDS011;56054;50.968;5.816;2022-09-09T09:02:15;6.13;;;0.98;;
68993;SDS011;56054;50.968;5.816;2022-09-09T09:05:32;10.10;;;1.27;;
68993;SDS011;56054;50.968;5.816;2022-09-09T09:08:57;9.32;;;1.30;;
68993;SDS011;56054;50.968;5.816;2022-09-09T09:12:12;10.52;;;1.35;;
68993;SDS011;56054;50.968;5.816;2022-09-09T09:15:24;3.83;;;0.80;;
68993;SDS011;56054;50.968;5.816;2022-09-09T09:18:33;5.38;;;1.10;;
68993;SDS011;56054;50.968;5.816;2022-09-09T09:21:42;5.43;;;0.90;;
68993;SDS011;56054;50.968;5.816;2022-09-09T09:24:54;9.80;;;1.27;;
68993;SDS011;56054;50.968;5.816;2022-09-09T09:28:10;5.25;;;1.00;;
68993;SDS011;56054;50.968;5.816;2022-09-09T09:31:23;3.92;;;0.93;;
68993;SDS011;56054;50.968;5.816;2022-09-09T09:34:31;5.97;;;1.13;;
68993;SDS011;56054;50.968;5.816;2022-09-09T09:37:39;10.50;;;1.10;;
68993;SDS011;56054;50.968;5.816;2022-09-09T09:40:57;7.32;;;1.13;;
68993;SDS011;56054;50.968;5.816;2022-09-09T09:47:59;10.02;;;1.60;;
68993;SDS011;56054;50.968;5.816;2022-09-09T09:51:13;6.25;;;1.40;;
68993;SDS011;56054;50.968;5.816;2022-09-09T09:54:26;7.90;;;1.10;;
68993;SDS011;56054;50.968;5.816;2022-09-09T09:57:37;9.65;;;1.17;;
68993;SDS011;56054;50.968;5.816;2022-09-09T10:00:49;8.65;;;1.15;;
68993;SDS011;56054;50.968;5.816;2022-09-09T10:04:01;5.93;;;1.05;;
68993;SDS011;56054;50.968;5.816;2022-09-09T10:07:22;4.85;;;1.10;;
68993;SDS011;56054;50.968;5.816;2022-09-09T10:10:50;5.07;;;0.90;;
68993;SDS011;56054;50.968;5.816;2022-09-09T10:17:39;12.45;;;1.00;;
68993;SDS011;56054;50.968;5.816;2022-09-09T10:21:55;10.90;;;1.10;;
68993;SDS011;56054;50.968;5.816;2022-09-09T10:24:59;4.00;;;1.10;;
68993;SDS011;56054;50.968;5.816;2022-09-09T10:28:43;4.00;;;1.00;;
68993;SDS011;56054;50.968;5.816;2022-09-09T12:27:11;3.88;;;0.90;;
68993;SDS011;56054;50.968;5.816;2022-09-09T13:18:04;5.07;;;0.35;;
68993;SDS011;56054;50.968;5.816;2022-09-09T13:21:19;4.00;;;0.50;;
68993;SDS011;56054;50.968;5.816;2022-09-09T13:36:01;3.25;;;0.40;;
68993;SDS011;56054;50.968;5.816;2022-09-09T13:39:15;3.67;;;0.70;;
68993;SDS011;56054;50.968;5.816;2022-09-09T13:42:28;3.65;;;0.60;;
68993;SDS011;56054;50.968;5.816;2022-09-09T13:45:37;1.77;;;0.70;;
68993;SDS011;56054;50.968;5.816;2022-09-09T13:48:58;4.60;;;0.90;;
68993;SDS011;56054;50.968;5.816;2022-09-09T13:52:32;3.85;;;0.90;;
68993;SDS011;56054;50.968;5.816;2022-09-09T13:55:46;4.95;;;1.05;;
68993;SDS011;56054;50.968;5.816;2022-09-09T14:02:41;4.70;;;1.10;;
68993;SDS011;56054;50.968;5.816;2022-09-09T14:09:30;2.45;;;1.17;;
68993;SDS011;56054;50.968;5.816;2022-09-09T14:13:02;4.78;;;1.20;;
68993;SDS011;56054;50.968;5.816;2022-09-09T14:16:33;6.18;;;1.42;;
68993;SDS011;56054;50.968;5.816;2022-09-09T15:04:33;5.38;;;0.95;;
68993;SDS011;56054;50.968;5.816;2022-09-09T15:41:49;4.93;;;1.20;;
68993;SDS011;56054;50.968;5.816;2022-09-09T15:45:22;3.22;;;0.70;;
68993;SDS011;56054;50.968;5.816;2022-09-09T15:49:04;3.70;;;0.70;;
68993;SDS011;56054;50.968;5.816;2022-09-09T20:43:13;5.68;;;1.15;;
68993;SDS011;56054;50.968;5.816;2022-09-09T20:46:53;4.10;;;1.00;;
68993;SDS011;56054;50.968;5.816;2022-09-09T20:50:26;4.82;;;1.00;;
68993;SDS011;56054;50.968;5.816;2022-09-09T20:54:15;10.35;;;1.08;;
68993;SDS011;56054;50.968;5.816;2022-09-09T20:58:07;7.53;;;0.90;;
68993;SDS011;56054;50.968;5.816;2022-09-09T21:01:31;3.40;;;1.10;;
68993;SDS011;56054;50.968;5.816;2022-09-09T21:04:48;5.18;;;0.82;;
68993;SDS011;56054;50.968;5.816;2022-09-09T21:08:00;6.18;;;0.68;;
68993;SDS011;56054;50.968;5.816;2022-09-09T21:15:02;6.50;;;0.95;;
68993;SDS011;56054;50.968;5.816;2022-09-09T21:18:18;2.85;;;0.80;;
68993;SDS011;56054;50.968;5.816;2022-09-09T21:21:41;2.38;;;0.47;;
68993;SDS011;56054;50.968;5.816;2022-09-09T21:25:40;2.17;;;0.70;;
68993;SDS011;56054;50.968;5.816;2022-09-09T21:32:38;1.88;;;0.47;;
68993;SDS011;56054;50.968;5.816;2022-09-09T21:35:45;3.17;;;0.60;;
68993;SDS011;56054;50.968;5.816;2022-09-09T21:39:11;2.17;;;0.70;;
68993;SDS011;56054;50.968;5.816;2022-09-09T21:45:42;4.70;;;0.68;;
68993;SDS011;56054;50.968;5.816;2022-09-09T21:49:17;2.35;;;0.68;;
68993;SDS011;56054;50.968;5.816;2022-09-09T21:55:59;1.85;;;0.43;;
68993;SDS011;56054;50.968;5.816;2022-09-09T21:59:25;1.48;;;0.30;;
68993;SDS011;56054;50.968;5.816;2022-09-09T22:05:57;1.15;;;0.43;;
68993;SDS011;56054;50.968;5.816;2022-09-09T22:09:11;2.13;;;0.50;;
68993;SDS011;56054;50.968;5.816;2022-09-09T22:12:27;1.95;;;0.40;;
68993;SDS011;56054;50.968;5.816;2022-09-09T22:15:52;1.75;;;0.43;;
68993;SDS011;56054;50.968;5.816;2022-09-09T22:23:25;1.35;;;0.40;;
68993;SDS011;56054;50.968;5.816;2022-09-09T22:27:34;2.63;;;0.57;;
68993;SDS011;56054;50.968;5.816;2022-09-09T22:34:13;2.45;;;0.57;;
68993;SDS011;56054;50.968;5.816;2022-09-09T23:12:16;2.90;;;0.70;;
